sensor_id;sensor_type;location;lat;lon;timestamp;pressure;altitude;pressure_sealevel;temperature;humidity
27712;BME280;2377;51.734;8.950;2023-08-17T00:01:09;98138.59;;;18.95;98.86
27712;BME280;2377;51.734;8.950;2023-08-17T00:03:36;98142.00;;;18.91;98.67
27712;BME280;2377;51.734;8.950;2023-08-17T00:06:03;98140.66;;;18.88;98.71
27712;BME280;2377;51.734;8.950;2023-08-17T00:08:31;98147.66;;;18.88;98.77
27712;BME280;2377;51.734;8.950;2023-08-17T00:10:58;98147.16;;;18.86;99.28
27712;BME280;2377;51.734;8.950;2023-08-17T00:13:25;98145.84;;;18.78;100.00
27712;BME280;2377;51.734;8.950;2023-08-17T00:15:54;98147.16;;;18.80;100.00
27712;BME280;2377;51.734;8.950;2023-08-17T00:18:21;98142.50;;;18.83;100.00
27712;BME280;2377;51.734;8.950;2023-08-17T00:20:48;98149.22;;;18.78;100.00
27712;BME280;2377;51.734;8.950;2023-08-17T00:23:15;98150.00;;;18.79;100.00
27712;BME280;2377;51.734;8.950;2023-08-17T00:25:43;98148.97;;;18.80;100.00
27712;BME280;2377;51.734;8.950;2023-08-17T00:28:10;98145.84;;;18.78;100.00
27712;BME280;2377;51.734;8.950;2023-08-17T00:30:37;98149.69;;;18.75;100.00
27712;BME280;2377;51.734;8.950;2023-08-17T00:33:06;98142.97;;;18.74;100.00
27712;BME280;2377;51.734;8.950;2023-08-17T00:35:33;98141.94;;;18.70;100.00
27712;BME280;2377;51.734;8.950;2023-08-17T00:38:00;98138.03;;;18.68;100.00
27712;BME280;2377;51.734;8.950;2023-08-17T00:40:27;98142.94;;;18.69;100.00
27712;BME280;2377;51.734;8.950;2023-08-17T00:42:54;98147.09;;;18.70;100.00
27712;BME280;2377;51.734;8.950;2023-08-17T00:45:23;98142.94;;;18.69;100.00
27712;BME280;2377;51.734;8.950;2023-08-17T00:47:50;98141.41;;;18.68;100.00
27712;BME280;2377;51.734;8.950;2023-08-17T00:50:19;98136.22;;;18.63;100.00
27712;BME280;2377;51.734;8.950;2023-08-17T00:52:47;98127.41;;;18.54;100.00
27712;BME280;2377;51.734;8.950;2023-08-17T00:55:14;98128.41;;;18.48;100.00
27712;BME280;2377;51.734;8.950;2023-08-17T00:57:42;98132.28;;;18.45;100.00
27712;BME280;2377;51.734;8.950;2023-08-17T01:00:14;98143.41;;;18.41;100.00
27712;BME280;2377;51.734;8.950;2023-08-17T01:02:42;98144.19;;;18.41;100.00
27712;BME280;2377;51.734;8.950;2023-08-17T01:05:09;98153.25;;;18.44;100.00
27712;BME280;2377;51.734;8.950;2023-08-17T01:07:37;98148.88;;;18.44;100.00
27712;BME280;2377;51.734;8.950;2023-08-17T01:10:07;98154.28;;;18.48;100.00
27712;BME280;2377;51.734;8.950;2023-08-17T01:12:43;98158.69;;;18.47;100.00
27712;BME280;2377;51.734;8.950;2023-08-17T01:15:19;98169.34;;;18.51;100.00
27712;BME280;2377;51.734;8.950;2023-08-17T01:17:55;98172.44;;;18.53;100.00
27712;BME280;2377;51.734;8.950;2023-08-17T01:20:24;98165.94;;;18.50;100.00
27712;BME280;2377;51.734;8.950;2023-08-17T01:22:56;98166.47;;;18.52;100.00
27712;BME280;2377;51.734;8.950;2023-08-17T01:25:27;98169.81;;;18.48;100.00
27712;BME280;2377;51.734;8.950;2023-08-17T01:27:54;98168.00;;;18.43;100.00
27712;BME280;2377;51.734;8.950;2023-08-17T01:30:22;98170.06;;;18.41;100.00
27712;BME280;2377;51.734;8.950;2023-08-17T01:32:56;98175.50;;;18.34;100.00
27712;BME280;2377;51.734;8.950;2023-08-17T01:35:32;98168.50;;;18.35;100.00
27712;BME280;2377;51.734;8.950;2023-08-17T01:38:07;98166.69;;;18.35;100.00
27712;BME280;2377;51.734;8.950;2023-08-17T01:40:36;98169.53;;;18.34;100.00
27712;BME280;2377;51.734;8.950;2023-08-17T01:43:04;98166.41;;;18.32;100.00
27712;BME280;2377;51.734;8.950;2023-08-17T01:45:31;98175.22;;;18.31;100.00
27712;BME280;2377;51.734;8.950;2023-08-17T01:47:59;98168.50;;;18.30;100.00
27712;BME280;2377;51.734;8.950;2023-08-17T01:50:26;98167.69;;;18.29;100.00
27712;BME280;2377;51.734;8.950;2023-08-17T01:52:53;98172.09;;;18.29;100.00
27712;BME280;2377;51.734;8.950;2023-08-17T01:55:22;98167.69;;;18.29;100.00
27712;BME280;2377;51.734;8.950;2023-08-17T01:57:50;98164.06;;;18.25;100.00
27712;BME280;2377;51.734;8.950;2023-08-17T02:00:18;98154.22;;;18.22;100.00
27712;BME280;2377;51.734;8.950;2023-08-17T02:02:45;98153.94;;;18.19;100.00
27712;BME280;2377;51.734;8.950;2023-08-17T02:05:12;98159.13;;;18.19;100.00
27712;BME280;2377;51.734;8.950;2023-08-17T02:07:40;98161.72;;;18.19;100.00
27712;BME280;2377;51.734;8.950;2023-08-17T02:10:08;98160.44;;;18.21;100.00
27712;BME280;2377;51.734;8.950;2023-08-17T02:12:35;98157.56;;;18.17;100.00
27712;BME280;2377;51.734;8.950;2023-08-17T02:15:04;98151.09;;;18.20;100.00
27712;BME280;2377;51.734;8.950;2023-08-17T02:17:32;98150.31;;;18.20;100.00
27712;BME280;2377;51.734;8.950;2023-08-17T02:19:59;98154.72;;;18.19;100.00
27712;BME280;2377;51.734;8.950;2023-08-17T02:22:26;98151.06;;;18.15;100.00
27712;BME280;2377;51.734;8.950;2023-08-17T02:24:53;98148.78;;;18.19;100.00
27712;BME280;2377;51.734;8.950;2023-08-17T02:27:20;98158.84;;;18.15;100.00
27712;BME280;2377;51.734;8.950;2023-08-17T02:29:47;98152.13;;;18.14;100.00
27712;BME280;2377;51.734;8.950;2023-08-17T02:32:16;98157.81;;;18.16;100.00
27712;BME280;2377;51.734;8.950;2023-08-17T02:34:43;98152.66;;;18.16;100.00
27712;BME280;2377;51.734;8.950;2023-08-17T02:37:10;98149.78;;;18.12;100.00
27712;BME280;2377;51.734;8.950;2023-08-17T02:39:37;98151.84;;;18.10;100.00
27712;BME280;2377;51.734;8.950;2023-08-17T02:42:05;98149.75;;;18.07;100.00
27712;BME280;2377;51.734;8.950;2023-08-17T02:44:32;98149.50;;;18.09;100.00
27712;BME280;2377;51.734;8.950;2023-08-17T02:46:59;98150.00;;;18.06;100.00
27712;BME280;2377;51.734;8.950;2023-08-17T02:49:28;98153.38;;;18.06;100.00
27712;BME280;2377;51.734;8.950;2023-08-17T02:51:55;98153.38;;;18.06;100.00
27712;BME280;2377;51.734;8.950;2023-08-17T02:54:22;98154.16;;;18.07;100.00
27712;BME280;2377;51.734;8.950;2023-08-17T02:56:49;98151.31;;;18.08;100.00
27712;BME280;2377;51.734;8.950;2023-08-17T02:59:16;98148.47;;;18.10;100.00
27712;BME280;2377;51.734;8.950;2023-08-17T03:01:45;98146.94;;;18.09;100.00
27712;BME280;2377;51.734;8.950;2023-08-17T03:04:12;98140.94;;;18.08;100.00
27712;BME280;2377;51.734;8.950;2023-08-17T03:06:41;98143.28;;;18.10;100.00
27712;BME280;2377;51.734;8.950;2023-08-17T03:09:08;98143.28;;;18.10;100.00
27712;BME280;2377;51.734;8.950;2023-08-17T03:11:35;98157.53;;;18.12;100.00
27712;BME280;2377;51.734;8.950;2023-08-17T03:14:03;98154.72;;;18.14;100.00
27712;BME280;2377;51.734;8.950;2023-08-17T03:16:30;98151.88;;;18.15;100.00
27712;BME280;2377;51.734;8.950;2023-08-17T03:18:58;98152.88;;;18.14;100.00
27712;BME280;2377;51.734;8.950;2023-08-17T03:21:25;98155.47;;;18.14;100.00
27712;BME280;2377;51.734;8.950;2023-08-17T03:23:54;98146.44;;;18.17;100.00
27712;BME280;2377;51.734;8.950;2023-08-17T03:26:21;98144.91;;;18.21;100.00
27712;BME280;2377;51.734;8.950;2023-08-17T03:28:48;98146.97;;;18.24;100.00
27712;BME280;2377;51.734;8.950;2023-08-17T03:31:15;98139.50;;;18.28;100.00
27712;BME280;2377;51.734;8.950;2023-08-17T03:33:43;98141.28;;;18.22;100.00
27712;BME280;2377;51.734;8.950;2023-08-17T03:36:10;98149.56;;;18.24;100.00
27712;BME280;2377;51.734;8.950;2023-08-17T03:38:37;98145.97;;;18.25;100.00
27712;BME280;2377;51.734;8.950;2023-08-17T03:41:06;98140.78;;;18.25;100.00
27712;BME280;2377;51.734;8.950;2023-08-17T03:43:33;98152.66;;;18.21;100.00
27712;BME280;2377;51.734;8.950;2023-08-17T03:46:04;98148.78;;;18.19;100.00
27712;BME280;2377;51.734;8.950;2023-08-17T03:48:31;98156.53;;;18.19;100.00
27712;BME280;2377;51.734;8.950;2023-08-17T03:50:58;98160.94;;;18.18;100.00
27712;BME280;2377;51.734;8.950;2023-08-17T03:53:27;98154.19;;;18.17;100.00
27712;BME280;2377;51.734;8.950;2023-08-17T03:55:54;98155.22;;;18.16;100.00
27712;BME280;2377;51.734;8.950;2023-08-17T03:58:23;98154.47;;;18.15;100.00
27712;BME280;2377;51.734;8.950;2023-08-17T04:00:53;98148.25;;;18.16;100.00
27712;BME280;2377;51.734;8.950;2023-08-17T04:03:20;98140.50;;;18.22;100.00
27712;BME280;2377;51.734;8.950;2023-08-17T04:05:47;98138.97;;;18.26;100.00
27712;BME280;2377;51.734;8.950;2023-08-17T04:08:15;98128.63;;;18.31;100.00
27712;BME280;2377;51.734;8.950;2023-08-17T04:10:42;98127.88;;;18.35;100.00
27712;BME280;2377;51.734;8.950;2023-08-17T04:13:09;98117.50;;;18.35;100.00
27712;BME280;2377;51.734;8.950;2023-08-17T04:15:37;98110.50;;;18.36;100.00
27712;BME280;2377;51.734;8.950;2023-08-17T04:18:04;98111.28;;;18.31;100.00
27712;BME280;2377;51.734;8.950;2023-08-17T04:20:32;98112.84;;;18.27;100.00
27712;BME280;2377;51.734;8.950;2023-08-17T04:22:59;98114.09;;;18.25;100.00
27712;BME280;2377;51.734;8.950;2023-08-17T04:25:26;98117.44;;;18.20;100.00
27712;BME280;2377;51.734;8.950;2023-08-17T04:27:53;98123.16;;;18.17;100.00
27712;BME280;2377;51.734;8.950;2023-08-17T04:30:21;98119.03;;;18.21;100.00
27712;BME280;2377;51.734;8.950;2023-08-17T04:32:49;98119.03;;;18.21;100.00
27712;BME280;2377;51.734;8.950;2023-08-17T04:35:18;98127.84;;;18.25;100.00
27712;BME280;2377;51.734;8.950;2023-08-17T04:37:45;98134.81;;;18.25;100.00
27712;BME280;2377;51.734;8.950;2023-08-17T04:40:13;98136.09;;;18.22;100.00
27712;BME280;2377;51.734;8.950;2023-08-17T04:42:40;98133.72;;;18.10;100.00
27712;BME280;2377;51.734;8.950;2023-08-17T04:45:08;98145.34;;;18.08;100.00
27712;BME280;2377;51.734;8.950;2023-08-17T04:47:36;98146.13;;;18.08;100.00
27712;BME280;2377;51.734;8.950;2023-08-17T04:50:07;98143.53;;;18.08;100.00
27712;BME280;2377;51.734;8.950;2023-08-17T04:52:34;98137.59;;;18.08;100.00
27712;BME280;2377;51.734;8.950;2023-08-17T04:55:01;98136.81;;;18.07;100.00
27712;BME280;2377;51.734;8.950;2023-08-17T04:57:29;98144.88;;;18.11;100.00
27712;BME280;2377;51.734;8.950;2023-08-17T04:59:56;98142.53;;;18.09;100.00
27712;BME280;2377;51.734;8.950;2023-08-17T05:02:23;98146.13;;;18.08;100.00
27712;BME280;2377;51.734;8.950;2023-08-17T05:04:54;98158.03;;;18.09;100.00
27712;BME280;2377;51.734;8.950;2023-08-17T05:07:22;98155.22;;;18.11;100.00
27712;BME280;2377;51.734;8.950;2023-08-17T05:09:50;98153.66;;;18.10;100.00
27712;BME280;2377;51.734;8.950;2023-08-17T05:12:17;98166.06;;;18.08;100.00
27712;BME280;2377;51.734;8.950;2023-08-17T05:14:45;98171.22;;;18.08;100.00
27712;BME280;2377;51.734;8.950;2023-08-17T05:17:12;98169.69;;;18.07;100.00
27712;BME280;2377;51.734;8.950;2023-08-17T05:19:39;98170.69;;;18.06;100.00
27712;BME280;2377;51.734;8.950;2023-08-17T05:22:11;98164.50;;;18.07;100.00
27712;BME280;2377;51.734;8.950;2023-08-17T05:24:40;98161.16;;;18.06;100.00
27712;BME280;2377;51.734;8.950;2023-08-17T05:27:07;98154.69;;;18.09;100.00
27712;BME280;2377;51.734;8.950;2023-08-17T05:29:35;98161.69;;;18.13;100.00
27712;BME280;2377;51.734;8.950;2023-08-17T05:32:02;98154.72;;;18.14;100.00
27712;BME280;2377;51.734;8.950;2023-08-17T05:34:30;98159.34;;;18.12;100.00
27712;BME280;2377;51.734;8.950;2023-08-17T05:36:57;98155.22;;;18.11;100.00
27712;BME280;2377;51.734;8.950;2023-08-17T05:39:24;98156.75;;;18.12;100.00
27712;BME280;2377;51.734;8.950;2023-08-17T05:41:53;98166.06;;;18.13;100.00
27712;BME280;2377;51.734;8.950;2023-08-17T05:44:20;98163.25;;;18.14;100.00
27712;BME280;2377;51.734;8.950;2023-08-17T05:46:47;98171.28;;;18.18;100.00
27712;BME280;2377;51.734;8.950;2023-08-17T05:49:14;98164.31;;;18.19;100.00
27712;BME280;2377;51.734;8.950;2023-08-17T05:51:42;98167.66;;;18.19;100.00
27712;BME280;2377;51.734;8.950;2023-08-17T05:54:09;98162.47;;;18.19;100.00
27712;BME280;2377;51.734;8.950;2023-08-17T05:56:36;98161.94;;;18.17;100.00
27712;BME280;2377;51.734;8.950;2023-08-17T05:59:05;98164.53;;;18.17;100.00
27712;BME280;2377;51.734;8.950;2023-08-17T06:01:32;98175.41;;;18.19;100.00
27712;BME280;2377;51.734;8.950;2023-08-17T06:03:59;98178.78;;;18.20;100.00
27712;BME280;2377;51.734;8.950;2023-08-17T06:06:26;98179.56;;;18.20;100.00
27712;BME280;2377;51.734;8.950;2023-08-17T06:08:53;98174.13;;;18.22;100.00
27712;BME280;2377;51.734;8.950;2023-08-17T06:11:21;98178.78;;;18.25;100.00
27712;BME280;2377;51.734;8.950;2023-08-17T06:13:49;98178.03;;;18.29;100.00
27712;BME280;2377;51.734;8.950;2023-08-17T06:16:17;98177.28;;;18.29;100.00
27712;BME280;2377;51.734;8.950;2023-08-17T06:18:44;98185.31;;;18.27;100.00
27712;BME280;2377;51.734;8.950;2023-08-17T06:21:12;98185.31;;;18.27;100.00
27712;BME280;2377;51.734;8.950;2023-08-17T06:23:39;98183.50;;;18.28;100.00
27712;BME280;2377;51.734;8.950;2023-08-17T06:26:06;98191.50;;;18.31;100.00
27712;BME280;2377;51.734;8.950;2023-08-17T06:28:33;98189.44;;;18.28;100.00
27712;BME280;2377;51.734;8.950;2023-08-17T06:31:01;98184.78;;;18.30;100.00
27712;BME280;2377;51.734;8.950;2023-08-17T06:33:29;98185.56;;;18.31;100.00
27712;BME280;2377;51.734;8.950;2023-08-17T06:35:56;98186.34;;;18.36;100.00
27712;BME280;2377;51.734;8.950;2023-08-17T06:38:23;98189.47;;;18.38;100.00
27712;BME280;2377;51.734;8.950;2023-08-17T06:40:52;98193.84;;;18.33;100.00
27712;BME280;2377;51.734;8.950;2023-08-17T06:43:19;98192.28;;;18.32;100.00
27712;BME280;2377;51.734;8.950;2023-08-17T06:45:46;98184.28;;;18.33;100.00
27712;BME280;2377;51.734;8.950;2023-08-17T06:48:13;98195.16;;;18.35;100.00
27712;BME280;2377;51.734;8.950;2023-08-17T06:50:42;98187.41;;;18.35;100.00
27712;BME280;2377;51.734;8.950;2023-08-17T06:53:09;98196.22;;;18.40;100.00
27712;BME280;2377;51.734;8.950;2023-08-17T06:55:36;98187.69;;;18.39;100.00
27712;BME280;2377;51.734;8.950;2023-08-17T06:58:04;98190.78;;;18.41;100.00
27712;BME280;2377;51.734;8.950;2023-08-17T07:00:31;98197.53;;;18.47;100.00
27712;BME280;2377;51.734;8.950;2023-08-17T07:02:58;98186.41;;;18.52;100.00
27712;BME280;2377;51.734;8.950;2023-08-17T07:05:25;98189.53;;;18.54;100.00
27712;BME280;2377;51.734;8.950;2023-08-17T07:07:54;98194.19;;;18.57;100.00
27712;BME280;2377;51.734;8.950;2023-08-17T07:10:21;98198.84;;;18.60;100.00
27712;BME280;2377;51.734;8.950;2023-08-17T07:12:48;98196.31;;;18.65;100.00
27712;BME280;2377;51.734;8.950;2023-08-17T07:15:16;98194.72;;;18.64;100.00
27712;BME280;2377;51.734;8.950;2023-08-17T07:17:43;98198.09;;;18.65;100.00
27712;BME280;2377;51.734;8.950;2023-08-17T07:20:11;98193.44;;;18.62;100.00
27712;BME280;2377;51.734;8.950;2023-08-17T07:22:38;98192.66;;;18.61;100.00
27712;BME280;2377;51.734;8.950;2023-08-17T07:25:07;98191.13;;;18.65;100.00
27712;BME280;2377;51.734;8.950;2023-08-17T07:27:35;98187.50;;;18.71;100.00
27712;BME280;2377;51.734;8.950;2023-08-17T07:30:03;98193.97;;;18.74;100.00
27712;BME280;2377;51.734;8.950;2023-08-17T07:32:30;98194.50;;;18.76;100.00
27712;BME280;2377;51.734;8.950;2023-08-17T07:34:57;98199.47;;;18.77;100.00
27712;BME280;2377;51.734;8.950;2023-08-17T07:37:24;98199.47;;;18.83;100.00
27712;BME280;2377;51.734;8.950;2023-08-17T07:39:58;98198.44;;;18.84;100.00
27712;BME280;2377;51.734;8.950;2023-08-17T07:42:26;98193.78;;;18.86;100.00
27712;BME280;2377;51.734;8.950;2023-08-17T07:44:53;98196.88;;;18.88;100.00
27712;BME280;2377;51.734;8.950;2023-08-17T07:47:20;98195.09;;;18.93;100.00
27712;BME280;2377;51.734;8.950;2023-08-17T07:49:48;98203.41;;;19.00;100.00
27712;BME280;2377;51.734;8.950;2023-08-17T07:52:15;98209.34;;;19.11;100.00
27712;BME280;2377;51.734;8.950;2023-08-17T07:54:42;98215.06;;;19.18;100.00
27712;BME280;2377;51.734;8.950;2023-08-17T07:57:10;98213.00;;;19.26;100.00
27712;BME280;2377;51.734;8.950;2023-08-17T07:59:38;98214.81;;;19.30;100.00
27712;BME280;2377;51.734;8.950;2023-08-17T08:02:06;98215.88;;;19.29;100.00
27712;BME280;2377;51.734;8.950;2023-08-17T08:04:33;98219.75;;;19.27;100.00
27712;BME280;2377;51.734;8.950;2023-08-17T08:07:00;98225.47;;;19.29;100.00
27712;BME280;2377;51.734;8.950;2023-08-17T08:09:27;98229.59;;;19.30;100.00
27712;BME280;2377;51.734;8.950;2023-08-17T08:11:54;98229.34;;;19.31;100.00
27712;BME280;2377;51.734;8.950;2023-08-17T08:14:21;98231.66;;;19.33;100.00
27712;BME280;2377;51.734;8.950;2023-08-17T08:16:50;98226.00;;;19.31;100.00
27712;BME280;2377;51.734;8.950;2023-08-17T08:19:17;98231.41;;;19.34;100.00
27712;BME280;2377;51.734;8.950;2023-08-17T08:21:44;98224.69;;;19.38;100.00
27712;BME280;2377;51.734;8.950;2023-08-17T08:24:11;98222.34;;;19.47;100.00
27712;BME280;2377;51.734;8.950;2023-08-17T08:26:39;98223.13;;;19.58;100.00
27712;BME280;2377;51.734;8.950;2023-08-17T08:29:06;98225.22;;;19.66;100.00
27712;BME280;2377;51.734;8.950;2023-08-17T08:31:33;98220.56;;;19.73;100.00
27712;BME280;2377;51.734;8.950;2023-08-17T08:34:02;98220.03;;;19.76;100.00
27712;BME280;2377;51.734;8.950;2023-08-17T08:36:29;98213.78;;;19.77;100.00
27712;BME280;2377;51.734;8.950;2023-08-17T08:38:56;98216.13;;;19.79;100.00
27712;BME280;2377;51.734;8.950;2023-08-17T08:41:26;98210.94;;;19.79;100.00
27712;BME280;2377;51.734;8.950;2023-08-17T08:43:54;98216.66;;;19.81;100.00
27712;BME280;2377;51.734;8.950;2023-08-17T08:46:24;98220.78;;;19.87;100.00
27712;BME280;2377;51.734;8.950;2023-08-17T08:48:55;98216.38;;;19.88;100.00
27712;BME280;2377;51.734;8.950;2023-08-17T08:51:27;98218.19;;;19.87;100.00
27712;BME280;2377;51.734;8.950;2023-08-17T08:54:01;98223.63;;;19.96;100.00
27712;BME280;2377;51.734;8.950;2023-08-17T08:56:32;98225.44;;;20.00;100.00
27712;BME280;2377;51.734;8.950;2023-08-17T08:59:02;98218.94;;;20.03;100.00
27712;BME280;2377;51.734;8.950;2023-08-17T09:01:31;98223.09;;;19.99;100.00
27712;BME280;2377;51.734;8.950;2023-08-17T09:03:59;98221.31;;;19.94;100.00
27712;BME280;2377;51.734;8.950;2023-08-17T09:06:29;98221.31;;;19.94;100.00
27712;BME280;2377;51.734;8.950;2023-08-17T09:08:58;98223.09;;;19.94;100.00
27712;BME280;2377;51.734;8.950;2023-08-17T09:11:26;98218.69;;;20.04;100.00
27712;BME280;2377;51.734;8.950;2023-08-17T09:13:54;98224.38;;;20.06;100.00
27712;BME280;2377;51.734;8.950;2023-08-17T09:16:21;98219.22;;;20.01;100.00
27712;BME280;2377;51.734;8.950;2023-08-17T09:18:48;98221.28;;;20.04;100.00
27712;BME280;2377;51.734;8.950;2023-08-17T09:21:22;98220.19;;;20.11;100.00
27712;BME280;2377;51.734;8.950;2023-08-17T09:23:55;98219.66;;;20.19;100.00
27712;BME280;2377;51.734;8.950;2023-08-17T09:26:23;98225.91;;;20.23;100.00
27712;BME280;2377;51.734;8.950;2023-08-17T09:28:51;98221.22;;;20.25;100.00
27712;BME280;2377;51.734;8.950;2023-08-17T09:31:20;98225.09;;;20.33;100.00
27712;BME280;2377;51.734;8.950;2023-08-17T09:33:50;98221.41;;;20.39;100.00
27712;BME280;2377;51.734;8.950;2023-08-17T09:36:21;98223.47;;;20.47;100.00
27712;BME280;2377;51.734;8.950;2023-08-17T09:38:48;98226.31;;;20.56;100.00
27712;BME280;2377;51.734;8.950;2023-08-17T09:41:18;98227.06;;;20.61;100.00
27712;BME280;2377;51.734;8.950;2023-08-17T09:43:47;98222.13;;;20.60;100.00
27712;BME280;2377;51.734;8.950;2023-08-17T09:46:14;98221.34;;;20.64;100.00
27712;BME280;2377;51.734;8.950;2023-08-17T09:48:44;98219.75;;;20.68;100.00
27712;BME280;2377;51.734;8.950;2023-08-17T09:51:15;98216.34;;;20.73;100.00
27712;BME280;2377;51.734;8.950;2023-08-17T09:53:43;98219.22;;;20.77;100.00
27712;BME280;2377;51.734;8.950;2023-08-17T09:56:12;98217.84;;;20.84;100.00
27712;BME280;2377;51.734;8.950;2023-08-17T09:58:40;98216.28;;;20.88;100.00
27712;BME280;2377;51.734;8.950;2023-08-17T10:01:10;98212.59;;;20.95;100.00
27712;BME280;2377;51.734;8.950;2023-08-17T10:03:43;98218.25;;;21.02;100.00
27712;BME280;2377;51.734;8.950;2023-08-17T10:06:17;98223.41;;;21.07;100.00
27712;BME280;2377;51.734;8.950;2023-08-17T10:08:47;98223.41;;;21.12;100.00
27712;BME280;2377;51.734;8.950;2023-08-17T10:11:19;98218.44;;;21.16;100.00
27712;BME280;2377;51.734;8.950;2023-08-17T10:13:54;98211.41;;;21.21;100.00
27712;BME280;2377;51.734;8.950;2023-08-17T10:16:27;98205.16;;;21.17;100.00
27712;BME280;2377;51.734;8.950;2023-08-17T10:19:09;98210.91;;;21.14;100.00
27712;BME280;2377;51.734;8.950;2023-08-17T10:21:48;98205.22;;;21.07;100.00
27712;BME280;2377;51.734;8.950;2023-08-17T10:24:19;98207.88;;;21.02;100.00
27712;BME280;2377;51.734;8.950;2023-08-17T10:26:46;98215.19;;;20.95;100.00
27712;BME280;2377;51.734;8.950;2023-08-17T10:29:16;98212.88;;;20.88;100.00
27712;BME280;2377;51.734;8.950;2023-08-17T10:31:44;98210.56;;;20.86;100.00
27712;BME280;2377;51.734;8.950;2023-08-17T10:34:13;98212.91;;;20.83;100.00
27712;BME280;2377;51.734;8.950;2023-08-17T10:36:42;98213.72;;;20.78;100.00
27712;BME280;2377;51.734;8.950;2023-08-17T10:39:20;98216.63;;;20.77;100.00
27712;BME280;2377;51.734;8.950;2023-08-17T10:41:49;98216.63;;;20.77;100.00
27712;BME280;2377;51.734;8.950;2023-08-17T10:44:39;98222.31;;;20.74;100.00
27712;BME280;2377;51.734;8.950;2023-08-17T10:47:21;98231.94;;;20.73;100.00
27712;BME280;2377;51.734;8.950;2023-08-17T10:49:50;98218.16;;;20.78;100.00
27712;BME280;2377;51.734;8.950;2023-08-17T10:52:27;98224.59;;;20.85;100.00
27712;BME280;2377;51.734;8.950;2023-08-17T10:54:54;98221.44;;;20.94;100.00
27712;BME280;2377;51.734;8.950;2023-08-17T10:57:32;98219.84;;;21.03;100.00
27712;BME280;2377;51.734;8.950;2023-08-17T11:00:17;98222.94;;;21.05;100.00
27712;BME280;2377;51.734;8.950;2023-08-17T11:02:55;98227.59;;;21.08;100.00
27712;BME280;2377;51.734;8.950;2023-08-17T11:05:52;98224.47;;;21.06;100.00
27712;BME280;2377;51.734;8.950;2023-08-17T11:08:27;98230.69;;;21.10;100.00
27712;BME280;2377;51.734;8.950;2023-08-17T11:11:01;98233.25;;;21.15;100.00
27712;BME280;2377;51.734;8.950;2023-08-17T11:13:30;98235.59;;;21.17;100.00
27712;BME280;2377;51.734;8.950;2023-08-17T11:16:01;98239.00;;;21.12;100.00
27712;BME280;2377;51.734;8.950;2023-08-17T11:18:29;98238.22;;;21.11;100.00
27712;BME280;2377;51.734;8.950;2023-08-17T11:20:57;98240.03;;;21.11;100.00
27712;BME280;2377;51.734;8.950;2023-08-17T11:23:24;98246.81;;;21.07;100.00
27712;BME280;2377;51.734;8.950;2023-08-17T11:25:55;98245.78;;;21.08;100.00
27712;BME280;2377;51.734;8.950;2023-08-17T11:28:23;98254.63;;;21.07;100.00
27712;BME280;2377;51.734;8.950;2023-08-17T11:30:57;98258.25;;;21.11;100.00
27712;BME280;2377;51.734;8.950;2023-08-17T11:33:27;98250.22;;;21.07;100.00
27712;BME280;2377;51.734;8.950;2023-08-17T11:35:55;98251.00;;;21.08;100.00
27712;BME280;2377;51.734;8.950;2023-08-17T11:38:22;98254.34;;;21.08;100.00
27712;BME280;2377;51.734;8.950;2023-08-17T11:40:50;98245.81;;;21.03;100.00
27712;BME280;2377;51.734;8.950;2023-08-17T11:43:17;98252.63;;;20.94;100.00
27712;BME280;2377;51.734;8.950;2023-08-17T11:45:46;98250.06;;;20.88;100.00
27712;BME280;2377;51.734;8.950;2023-08-17T11:48:13;98250.59;;;20.85;100.00
27712;BME280;2377;51.734;8.950;2023-08-17T11:50:44;98252.19;;;20.76;100.00
27712;BME280;2377;51.734;8.950;2023-08-17T11:53:11;98240.25;;;20.75;100.00
27712;BME280;2377;51.734;8.950;2023-08-17T11:55:38;98239.22;;;20.71;100.00
27712;BME280;2377;51.734;8.950;2023-08-17T11:58:05;98241.31;;;20.69;100.00
27712;BME280;2377;51.734;8.950;2023-08-17T12:00:36;98239.78;;;20.68;100.00
27712;BME280;2377;51.734;8.950;2023-08-17T12:03:06;98238.47;;;20.71;100.00
27712;BME280;2377;51.734;8.950;2023-08-17T12:05:35;98241.06;;;20.71;100.00
27712;BME280;2377;51.734;8.950;2023-08-17T12:08:04;98240.28;;;20.70;100.00
27712;BME280;2377;51.734;8.950;2023-08-17T12:10:34;98248.06;;;20.70;100.00
27712;BME280;2377;51.734;8.950;2023-08-17T12:13:03;98230.41;;;20.67;100.00
27712;BME280;2377;51.734;8.950;2023-08-17T12:15:31;98243.41;;;20.67;100.00
27712;BME280;2377;51.734;8.950;2023-08-17T12:18:01;98235.34;;;20.68;100.00
27712;BME280;2377;51.734;8.950;2023-08-17T12:20:29;98240.78;;;20.72;100.00
27712;BME280;2377;51.734;8.950;2023-08-17T12:23:03;98228.53;;;20.78;100.00
27712;BME280;2377;51.734;8.950;2023-08-17T12:25:31;98237.63;;;20.80;100.00
27712;BME280;2377;51.734;8.950;2023-08-17T12:27:59;98240.22;;;20.80;100.00
27712;BME280;2377;51.734;8.950;2023-08-17T12:30:28;98229.78;;;20.85;100.00
27712;BME280;2377;51.734;8.950;2023-08-17T12:32:57;98240.97;;;20.91;100.00
27712;BME280;2377;51.734;8.950;2023-08-17T12:35:25;98237.50;;;21.01;100.00
27712;BME280;2377;51.734;8.950;2023-08-17T12:37:52;98247.63;;;21.07;100.00
27712;BME280;2377;51.734;8.950;2023-08-17T12:40:22;98233.00;;;21.11;100.00
27712;BME280;2377;51.734;8.950;2023-08-17T12:42:50;98236.88;;;21.14;100.00
27712;BME280;2377;51.734;8.950;2023-08-17T12:45:17;98225.38;;;21.25;100.00
27712;BME280;2377;51.734;8.950;2023-08-17T12:47:45;98229.47;;;21.37;100.00
27712;BME280;2377;51.734;8.950;2023-08-17T12:50:12;98231.53;;;21.40;100.00
27712;BME280;2377;51.734;8.950;2023-08-17T12:52:39;98223.44;;;21.46;100.00
27712;BME280;2377;51.734;8.950;2023-08-17T12:55:07;98223.72;;;21.45;100.00
27712;BME280;2377;51.734;8.950;2023-08-17T12:57:35;98225.22;;;21.51;100.00
27712;BME280;2377;51.734;8.950;2023-08-17T13:00:04;98224.91;;;21.58;100.00
27712;BME280;2377;51.734;8.950;2023-08-17T13:02:32;98228.22;;;21.63;100.00
27712;BME280;2377;51.734;8.950;2023-08-17T13:04:59;98222.44;;;21.71;100.00
27712;BME280;2377;51.734;8.950;2023-08-17T13:07:26;98222.91;;;21.79;100.00